sensor_id;sensor_type;location;lat;lon;timestamp;temperature;humidity
8676;DHT22;4375;52.486;13.424;2023-05-10T00:01:46;13.10;99.90
8676;DHT22;4375;52.486;13.424;2023-05-10T00:04:12;13.10;99.90
8676;DHT22;4375;52.486;13.424;2023-05-10T00:06:37;13.00;99.90
8676;DHT22;4375;52.486;13.424;2023-05-10T00:09:03;13.10;99.90
8676;DHT22;4375;52.486;13.424;2023-05-10T00:11:29;13.10;99.90
8676;DHT22;4375;52.486;13.424;2023-05-10T00:13:55;13.00;99.90
8676;DHT22;4375;52.486;13.424;2023-05-10T00:16:21;13.10;99.90
8676;DHT22;4375;52.486;13.424;2023-05-10T00:18:46;13.00;99.90
8676;DHT22;4375;52.486;13.424;2023-05-10T00:21:12;13.00;99.90
8676;DHT22;4375;52.486;13.424;2023-05-10T00:23:37;12.90;99.90
8676;DHT22;4375;52.486;13.424;2023-05-10T00:26:03;12.90;99.90
8676;DHT22;4375;52.486;13.424;2023-05-10T00:28:29;12.90;99.90
8676;DHT22;4375;52.486;13.424;2023-05-10T00:30:55;12.90;99.90
8676;DHT22;4375;52.486;13.424;2023-05-10T00:33:21;12.80;99.90
8676;DHT22;4375;52.486;13.424;2023-05-10T00:35:46;12.80;99.90
8676;DHT22;4375;52.486;13.424;2023-05-10T00:38:12;12.80;99.90
8676;DHT22;4375;52.486;13.424;2023-05-10T00:40:38;12.70;99.90
8676;DHT22;4375;52.486;13.424;2023-05-10T00:43:03;12.70;99.90
8676;DHT22;4375;52.486;13.424;2023-05-10T00:45:31;12.60;99.90
8676;DHT22;4375;52.486;13.424;2023-05-10T00:47:59;12.60;99.90
8676;DHT22;4375;52.486;13.424;2023-05-10T00:50:25;12.40;99.90
8676;DHT22;4375;52.486;13.424;2023-05-10T00:52:51;12.40;99.90
8676;DHT22;4375;52.486;13.424;2023-05-10T00:55:18;12.40;99.90
8676;DHT22;4375;52.486;13.424;2023-05-10T00:57:44;12.40;99.90
8676;DHT22;4375;52.486;13.424;2023-05-10T01:00:10;12.40;99.90
8676;DHT22;4375;52.486;13.424;2023-05-10T01:02:36;12.40;99.90
8676;DHT22;4375;52.486;13.424;2023-05-10T01:05:03;12.40;99.90
8676;DHT22;4375;52.486;13.424;2023-05-10T01:07:29;12.40;99.90
8676;DHT22;4375;52.486;13.424;2023-05-10T01:09:55;12.30;99.90
8676;DHT22;4375;52.486;13.424;2023-05-10T01:12:21;12.30;99.90
8676;DHT22;4375;52.486;13.424;2023-05-10T01:14:47;12.20;99.90
8676;DHT22;4375;52.486;13.424;2023-05-10T01:17:13;12.20;99.90
8676;DHT22;4375;52.486;13.424;2023-05-10T01:19:40;12.10;99.90
8676;DHT22;4375;52.486;13.424;2023-05-10T01:22:10;12.00;99.90
8676;DHT22;4375;52.486;13.424;2023-05-10T01:27:25;11.90;99.90
8676;DHT22;4375;52.486;13.424;2023-05-10T01:35:43;11.90;99.90
8676;DHT22;4375;52.486;13.424;2023-05-10T01:43:55;11.70;99.90
8676;DHT22;4375;52.486;13.424;2023-05-10T01:46:36;11.70;99.90
8676;DHT22;4375;52.486;13.424;2023-05-10T01:49:31;11.70;99.90
8676;DHT22;4375;52.486;13.424;2023-05-10T01:52:06;11.60;99.90
8676;DHT22;4375;52.486;13.424;2023-05-10T01:54:33;11.60;99.90
8676;DHT22;4375;52.486;13.424;2023-05-10T01:57:03;11.60;99.90
8676;DHT22;4375;52.486;13.424;2023-05-10T01:59:34;11.60;99.90
8676;DHT22;4375;52.486;13.424;2023-05-10T02:02:05;11.60;99.90
8676;DHT22;4375;52.486;13.424;2023-05-10T02:04:31;11.50;99.90
8676;DHT22;4375;52.486;13.424;2023-05-10T02:06:59;11.60;99.90
8676;DHT22;4375;52.486;13.424;2023-05-10T02:09:25;11.60;99.90
8676;DHT22;4375;52.486;13.424;2023-05-10T02:11:53;11.60;99.90
8676;DHT22;4375;52.486;13.424;2023-05-10T02:14:20;11.60;99.90
8676;DHT22;4375;52.486;13.424;2023-05-10T02:16:46;11.50;99.90
8676;DHT22;4375;52.486;13.424;2023-05-10T02:19:13;11.50;99.90
8676;DHT22;4375;52.486;13.424;2023-05-10T02:21:41;11.50;99.90
8676;DHT22;4375;52.486;13.424;2023-05-10T02:24:08;11.50;99.90
8676;DHT22;4375;52.486;13.424;2023-05-10T02:26:36;11.40;99.90
8676;DHT22;4375;52.486;13.424;2023-05-10T02:29:03;11.40;99.90
8676;DHT22;4375;52.486;13.424;2023-05-10T02:31:33;11.30;99.90
8676;DHT22;4375;52.486;13.424;2023-05-10T02:34:01;11.30;99.90
8676;DHT22;4375;52.486;13.424;2023-05-10T02:36:27;11.30;99.90
8676;DHT22;4375;52.486;13.424;2023-05-10T02:38:54;11.20;99.90
8676;DHT22;4375;52.486;13.424;2023-05-10T02:41:22;11.20;99.90
8676;DHT22;4375;52.486;13.424;2023-05-10T02:43:50;11.20;99.90
8676;DHT22;4375;52.486;13.424;2023-05-10T02:46:17;11.20;99.90
8676;DHT22;4375;52.486;13.424;2023-05-10T02:48:44;11.10;99.90
8676;DHT22;4375;52.486;13.424;2023-05-10T02:51:12;11.10;99.90
8676;DHT22;4375;52.486;13.424;2023-05-10T02:53:41;11.10;99.90
8676;DHT22;4375;52.486;13.424;2023-05-10T02:56:15;11.10;99.90
8676;DHT22;4375;52.486;13.424;2023-05-10T02:58:43;11.00;99.90
8676;DHT22;4375;52.486;13.424;2023-05-10T03:01:08;11.10;99.90
8676;DHT22;4375;52.486;13.424;2023-05-10T03:03:34;11.00;99.90
8676;DHT22;4375;52.486;13.424;2023-05-10T03:06:00;10.90;99.90
8676;DHT22;4375;52.486;13.424;2023-05-10T03:08:26;10.90;99.90
8676;DHT22;4375;52.486;13.424;2023-05-10T03:16:45;10.80;99.90
8676;DHT22;4375;52.486;13.424;2023-05-10T03:19:21;10.80;99.90
8676;DHT22;4375;52.486;13.424;2023-05-10T03:21:51;10.80;99.90
8676;DHT22;4375;52.486;13.424;2023-05-10T03:24:20;10.80;99.90
8676;DHT22;4375;52.486;13.424;2023-05-10T03:26:47;10.70;99.90
8676;DHT22;4375;52.486;13.424;2023-05-10T03:29:14;10.70;99.90
8676;DHT22;4375;52.486;13.424;2023-05-10T03:31:41;10.80;99.90
8676;DHT22;4375;52.486;13.424;2023-05-10T03:34:07;10.70;99.90
8676;DHT22;4375;52.486;13.424;2023-05-10T03:36:32;10.70;99.90
8676;DHT22;4375;52.486;13.424;2023-05-10T03:38:58;10.70;99.90
8676;DHT22;4375;52.486;13.424;2023-05-10T03:41:24;10.70;99.90
8676;DHT22;4375;52.486;13.424;2023-05-10T03:43:51;10.70;99.90
8676;DHT22;4375;52.486;13.424;2023-05-10T03:46:16;10.70;99.90
8676;DHT22;4375;52.486;13.424;2023-05-10T03:48:42;10.70;99.90
8676;DHT22;4375;52.486;13.424;2023-05-10T03:51:08;10.60;99.90
8676;DHT22;4375;52.486;13.424;2023-05-10T03:53:33;10.60;99.90
8676;DHT22;4375;52.486;13.424;2023-05-10T03:55:59;10.70;99.90
8676;DHT22;4375;52.486;13.424;2023-05-10T03:58:25;10.60;99.90
8676;DHT22;4375;52.486;13.424;2023-05-10T04:00:51;10.60;99.90
8676;DHT22;4375;52.486;13.424;2023-05-10T04:03:17;10.60;99.90
8676;DHT22;4375;52.486;13.424;2023-05-10T04:05:43;10.70;99.90
8676;DHT22;4375;52.486;13.424;2023-05-10T04:08:09;10.70;99.90
8676;DHT22;4375;52.486;13.424;2023-05-10T04:10:35;10.70;99.90
8676;DHT22;4375;52.486;13.424;2023-05-10T04:13:00;10.70;99.90
8676;DHT22;4375;52.486;13.424;2023-05-10T04:15:26;10.80;99.90
8676;DHT22;4375;52.486;13.424;2023-05-10T04:17:52;10.80;99.90
8676;DHT22;4375;52.486;13.424;2023-05-10T04:20:17;10.80;99.90
8676;DHT22;4375;52.486;13.424;2023-05-10T04:22:43;10.80;99.90
8676;DHT22;4375;52.486;13.424;2023-05-10T04:25:09;10.80;99.90
8676;DHT22;4375;52.486;13.424;2023-05-10T04:27:35;10.90;99.90
8676;DHT22;4375;52.486;13.424;2023-05-10T04:30:00;11.00;99.90
8676;DHT22;4375;52.486;13.424;2023-05-10T04:32:26;11.00;99.90
8676;DHT22;4375;52.486;13.424;2023-05-10T04:34:52;11.00;99.90
8676;DHT22;4375;52.486;13.424;2023-05-10T04:37:18;11.00;99.90
8676;DHT22;4375;52.486;13.424;2023-05-10T04:39:44;11.00;99.90
8676;DHT22;4375;52.486;13.424;2023-05-10T04:42:09;11.10;99.90
8676;DHT22;4375;52.486;13.424;2023-05-10T04:44:35;11.10;99.90
8676;DHT22;4375;52.486;13.424;2023-05-10T04:47:01;11.20;99.90
8676;DHT22;4375;52.486;13.424;2023-05-10T04:49:29;11.20;99.90
8676;DHT22;4375;52.486;13.424;2023-05-10T04:51:55;11.20;99.90
8676;DHT22;4375;52.486;13.424;2023-05-10T04:54:20;11.20;99.90
8676;DHT22;4375;52.486;13.424;2023-05-10T04:56:46;11.30;99.90
8676;DHT22;4375;52.486;13.424;2023-05-10T04:59:11;11.40;99.90
8676;DHT22;4375;52.486;13.424;2023-05-10T05:01:37;11.40;99.90
8676;DHT22;4375;52.486;13.424;2023-05-10T05:04:03;11.40;99.90
8676;DHT22;4375;52.486;13.424;2023-05-10T05:06:29;11.50;99.90
8676;DHT22;4375;52.486;13.424;2023-05-10T05:08:54;11.60;99.90
8676;DHT22;4375;52.486;13.424;2023-05-10T05:11:20;11.60;99.90
8676;DHT22;4375;52.486;13.424;2023-05-10T05:13:46;11.60;99.90
8676;DHT22;4375;52.486;13.424;2023-05-10T05:16:12;11.70;99.90
8676;DHT22;4375;52.486;13.424;2023-05-10T05:18:38;11.80;99.90
8676;DHT22;4375;52.486;13.424;2023-05-10T05:21:12;11.80;99.90
8676;DHT22;4375;52.486;13.424;2023-05-10T05:23:38;11.90;99.90
8676;DHT22;4375;52.486;13.424;2023-05-10T05:26:04;12.00;99.90
8676;DHT22;4375;52.486;13.424;2023-05-10T05:28:29;12.10;99.90
8676;DHT22;4375;52.486;13.424;2023-05-10T05:30:58;12.10;99.90
8676;DHT22;4375;52.486;13.424;2023-05-10T05:33:23;12.20;99.90
8676;DHT22;4375;52.486;13.424;2023-05-10T05:35:49;12.30;99.90
8676;DHT22;4375;52.486;13.424;2023-05-10T05:38:16;12.30;99.90
8676;DHT22;4375;52.486;13.424;2023-05-10T05:40:42;12.40;99.90
8676;DHT22;4375;52.486;13.424;2023-05-10T05:43:08;12.50;99.90
8676;DHT22;4375;52.486;13.424;2023-05-10T05:45:34;12.60;99.90
8676;DHT22;4375;52.486;13.424;2023-05-10T05:47:59;12.60;99.90
8676;DHT22;4375;52.486;13.424;2023-05-10T05:50:25;12.70;99.90
8676;DHT22;4375;52.486;13.424;2023-05-10T05:52:51;12.80;99.90
8676;DHT22;4375;52.486;13.424;2023-05-10T05:55:16;12.90;99.90
8676;DHT22;4375;52.486;13.424;2023-05-10T05:57:42;12.90;99.90
8676;DHT22;4375;52.486;13.424;2023-05-10T06:00:08;13.00;99.90
8676;DHT22;4375;52.486;13.424;2023-05-10T06:02:34;13.10;99.90
8676;DHT22;4375;52.486;13.424;2023-05-10T06:04:59;13.10;99.90
8676;DHT22;4375;52.486;13.424;2023-05-10T06:07:25;13.20;99.90
8676;DHT22;4375;52.486;13.424;2023-05-10T06:09:51;13.20;99.90
8676;DHT22;4375;52.486;13.424;2023-05-10T06:12:16;13.30;99.90
8676;DHT22;4375;52.486;13.424;2023-05-10T06:14:42;13.40;99.90
8676;DHT22;4375;52.486;13.424;2023-05-10T06:17:08;13.40;99.90
8676;DHT22;4375;52.486;13.424;2023-05-10T06:19:33;13.40;99.90
8676;DHT22;4375;52.486;13.424;2023-05-10T06:21:59;13.50;99.90
8676;DHT22;4375;52.486;13.424;2023-05-10T06:24:24;13.60;99.90
8676;DHT22;4375;52.486;13.424;2023-05-10T06:26:50;13.60;99.90
8676;DHT22;4375;52.486;13.424;2023-05-10T06:29:16;13.70;99.90
8676;DHT22;4375;52.486;13.424;2023-05-10T06:31:41;13.80;99.90
8676;DHT22;4375;52.486;13.424;2023-05-10T06:34:07;13.80;99.90
8676;DHT22;4375;52.486;13.424;2023-05-10T06:36:33;13.90;99.90
8676;DHT22;4375;52.486;13.424;2023-05-10T06:38:59;13.90;99.90
8676;DHT22;4375;52.486;13.424;2023-05-10T06:41:25;14.00;99.90
8676;DHT22;4375;52.486;13.424;2023-05-10T06:43:50;14.10;99.90
8676;DHT22;4375;52.486;13.424;2023-05-10T06:46:16;14.20;99.90
8676;DHT22;4375;52.486;13.424;2023-05-10T06:48:41;14.20;99.90
8676;DHT22;4375;52.486;13.424;2023-05-10T06:51:07;14.30;99.90
8676;DHT22;4375;52.486;13.424;2023-05-10T06:53:33;14.40;99.90
8676;DHT22;4375;52.486;13.424;2023-05-10T06:55:58;14.50;99.90
8676;DHT22;4375;52.486;13.424;2023-05-10T06:58:24;14.60;99.90
8676;DHT22;4375;52.486;13.424;2023-05-10T07:00:50;14.60;99.90
8676;DHT22;4375;52.486;13.424;2023-05-10T07:03:15;14.80;99.90
8676;DHT22;4375;52.486;13.424;2023-05-10T07:05:41;14.80;99.90
8676;DHT22;4375;52.486;13.424;2023-05-10T07:08:07;14.90;99.90
8676;DHT22;4375;52.486;13.424;2023-05-10T07:10:33;14.90;99.90
8676;DHT22;4375;52.486;13.424;2023-05-10T07:12:59;15.00;99.90
8676;DHT22;4375;52.486;13.424;2023-05-10T07:15:26;15.00;99.90
8676;DHT22;4375;52.486;13.424;2023-05-10T07:17:52;15.10;99.90
8676;DHT22;4375;52.486;13.424;2023-05-10T07:20:18;15.10;99.90
8676;DHT22;4375;52.486;13.424;2023-05-10T07:22:43;15.20;99.90
8676;DHT22;4375;52.486;13.424;2023-05-10T07:25:09;15.50;99.90
8676;DHT22;4375;52.486;13.424;2023-05-10T07:27:35;16.50;99.90
8676;DHT22;4375;52.486;13.424;2023-05-10T07:30:00;17.70;99.90
8676;DHT22;4375;52.486;13.424;2023-05-10T07:32:26;18.50;99.90
8676;DHT22;4375;52.486;13.424;2023-05-10T07:34:52;18.30;99.90
8676;DHT22;4375;52.486;13.424;2023-05-10T07:37:18;18.20;99.90
8676;DHT22;4375;52.486;13.424;2023-05-10T07:39:43;18.10;99.90
8676;DHT22;4375;52.486;13.424;2023-05-10T07:42:09;19.20;99.90
8676;DHT22;4375;52.486;13.424;2023-05-10T07:44:35;19.50;99.90
8676;DHT22;4375;52.486;13.424;2023-05-10T07:47:00;20.70;99.90
8676;DHT22;4375;52.486;13.424;2023-05-10T07:49:26;21.50;99.90
8676;DHT22;4375;52.486;13.424;2023-05-10T07:51:51;21.50;99.30
8676;DHT22;4375;52.486;13.424;2023-05-10T07:54:17;21.70;98.50
8676;DHT22;4375;52.486;13.424;2023-05-10T07:56:43;22.10;97.50
8676;DHT22;4375;52.486;13.424;2023-05-10T07:59:16;22.60;96.20
8676;DHT22;4375;52.486;13.424;2023-05-10T08:01:42;23.00;94.70
8676;DHT22;4375;52.486;13.424;2023-05-10T08:04:08;23.00;93.70
8676;DHT22;4375;52.486;13.424;2023-05-10T08:06:34;23.80;92.20
8676;DHT22;4375;52.486;13.424;2023-05-10T08:09:00;24.00;90.90
8676;DHT22;4375;52.486;13.424;2023-05-10T08:11:25;23.80;90.30
8676;DHT22;4375;52.486;13.424;2023-05-10T08:13:53;23.80;90.90
8676;DHT22;4375;52.486;13.424;2023-05-10T08:16:19;24.00;88.20
8676;DHT22;4375;52.486;13.424;2023-05-10T08:18:46;23.50;87.80
8676;DHT22;4375;52.486;13.424;2023-05-10T08:21:14;23.90;87.80
8676;DHT22;4375;52.486;13.424;2023-05-10T08:23:40;25.50;86.70
8676;DHT22;4375;52.486;13.424;2023-05-10T08:26:06;26.30;81.60
8676;DHT22;4375;52.486;13.424;2023-05-10T08:28:31;25.30;81.70
8676;DHT22;4375;52.486;13.424;2023-05-10T08:30:57;25.30;80.70
8676;DHT22;4375;52.486;13.424;2023-05-10T08:33:23;25.10;82.00
8676;DHT22;4375;52.486;13.424;2023-05-10T08:35:48;26.10;80.00
8676;DHT22;4375;52.486;13.424;2023-05-10T08:38:14;26.90;76.50
8676;DHT22;4375;52.486;13.424;2023-05-10T08:40:44;25.80;77.30
8676;DHT22;4375;52.486;13.424;2023-05-10T08:43:11;26.00;76.20
8676;DHT22;4375;52.486;13.424;2023-05-10T08:45:40;25.10;76.10
8676;DHT22;4375;52.486;13.424;2023-05-10T08:48:08;25.10;76.90
8676;DHT22;4375;52.486;13.424;2023-05-10T08:50:36;26.00;75.40
8676;DHT22;4375;52.486;13.424;2023-05-10T08:53:05;25.00;76.30
8676;DHT22;4375;52.486;13.424;2023-05-10T08:55:32;25.10;75.50
8676;DHT22;4375;52.486;13.424;2023-05-10T08:57:59;25.60;75.40
8676;DHT22;4375;52.486;13.424;2023-05-10T09:00:25;26.10;73.90
8676;DHT22;4375;52.486;13.424;2023-05-10T09:02:51;25.70;73.60
8676;DHT22;4375;52.486;13.424;2023-05-10T09:05:17;25.50;75.00
8676;DHT22;4375;52.486;13.424;2023-05-10T09:07:43;25.90;73.90
8676;DHT22;4375;52.486;13.424;2023-05-10T09:10:11;25.60;73.90
8676;DHT22;4375;52.486;13.424;2023-05-10T09:12:37;25.30;74.40
8676;DHT22;4375;52.486;13.424;2023-05-10T09:15:04;26.00;73.20
8676;DHT22;4375;52.486;13.424;2023-05-10T09:17:31;26.20;72.60
8676;DHT22;4375;52.486;13.424;2023-05-10T09:19:58;25.80;73.00
8676;DHT22;4375;52.486;13.424;2023-05-10T09:22:24;25.00;73.30
8676;DHT22;4375;52.486;13.424;2023-05-10T09:25:13;25.30;73.20
8676;DHT22;4375;52.486;13.424;2023-05-10T09:27:41;24.70;74.30
8676;DHT22;4375;52.486;13.424;2023-05-10T09:30:10;24.60;73.90
8676;DHT22;4375;52.486;13.424;2023-05-10T09:32:42;24.80;75.10
8676;DHT22;4375;52.486;13.424;2023-05-10T09:35:12;25.80;73.70
8676;DHT22;4375;52.486;13.424;2023-05-10T09:37:40;25.70;72.60
8676;DHT22;4375;52.486;13.424;2023-05-10T09:40:13;24.80;73.20
8676;DHT22;4375;52.486;13.424;2023-05-10T09:42:41;24.70;73.80
8676;DHT22;4375;52.486;13.424;2023-05-10T09:45:07;24.30;76.00
8676;DHT22;4375;52.486;13.424;2023-05-10T09:47:36;24.20;76.80
8676;DHT22;4375;52.486;13.424;2023-05-10T09:50:03;23.10;77.40
8676;DHT22;4375;52.486;13.424;2023-05-10T09:52:50;23.20;77.80
8676;DHT22;4375;52.486;13.424;2023-05-10T09:55:21;22.60;79.10
8676;DHT22;4375;52.486;13.424;2023-05-10T09:57:48;22.50;79.60
8676;DHT22;4375;52.486;13.424;2023-05-10T10:00:19;22.50;79.60
8676;DHT22;4375;52.486;13.424;2023-05-10T10:02:54;22.40;80.40
8676;DHT22;4375;52.486;13.424;2023-05-10T10:05:20;22.20;81.70
8676;DHT22;4375;52.486;13.424;2023-05-10T10:07:46;22.00;82.30
8676;DHT22;4375;52.486;13.424;2023-05-10T10:10:12;22.00;80.80
8676;DHT22;4375;52.486;13.424;2023-05-10T10:12:41;22.00;81.00
8676;DHT22;4375;52.486;13.424;2023-05-10T10:15:08;22.00;81.70
8676;DHT22;4375;52.486;13.424;2023-05-10T10:17:36;22.30;82.20
8676;DHT22;4375;52.486;13.424;2023-05-10T10:20:03;22.20;81.30
8676;DHT22;4375;52.486;13.424;2023-05-10T10:22:29;21.80;80.70
8676;DHT22;4375;52.486;13.424;2023-05-10T10:24:55;21.90;81.60
8676;DHT22;4375;52.486;13.424;2023-05-10T10:35:45;21.50;82.90
8676;DHT22;4375;52.486;13.424;2023-05-10T10:38:12;21.50;81.20
8676;DHT22;4375;52.486;13.424;2023-05-10T10:40:38;21.60;81.70
8676;DHT22;4375;52.486;13.424;2023-05-10T10:43:24;21.70;81.90
8676;DHT22;4375;52.486;13.424;2023-05-10T10:46:12;21.70;81.90
8676;DHT22;4375;52.486;13.424;2023-05-10T10:48:39;21.40;82.50
8676;DHT22;4375;52.486;13.424;2023-05-10T10:51:04;21.40;82.70
8676;DHT22;4375;52.486;13.424;2023-05-10T10:53:30;21.50;83.00
8676;DHT22;4375;52.486;13.424;2023-05-10T10:56:08;21.70;83.10
8676;DHT22;4375;52.486;13.424;2023-05-10T10:58:38;21.80;83.00
8676;DHT22;4375;52.486;13.424;2023-05-10T11:01:15;22.00;83.50
8676;DHT22;4375;52.486;13.424;2023-05-10T11:06:31;22.20;81.40
8676;DHT22;4375;52.486;13.424;2023-05-10T11:08:57;22.20;81.90
8676;DHT22;4375;52.486;13.424;2023-05-10T11:11:23;21.90;82.20
8676;DHT22;4375;52.486;13.424;2023-05-10T11:13:49;21.80;82.90
8676;DHT22;4375;52.486;13.424;2023-05-10T11:16:23;21.80;81.70
8676;DHT22;4375;52.486;13.424;2023-05-10T11:19:03;21.70;82.50
8676;DHT22;4375;52.486;13.424;2023-05-10T11:21:33;22.00;82.40
8676;DHT22;4375;52.486;13.424;2023-05-10T11:24:00;22.00;82.60
8676;DHT22;4375;52.486;13.424;2023-05-10T11:26:34;21.70;80.60
8676;DHT22;4375;52.486;13.424;2023-05-10T11:29:00;21.70;80.80
8676;DHT22;4375;52.486;13.424;2023-05-10T11:31:27;21.70;80.70
8676;DHT22;4375;52.486;13.424;2023-05-10T11:33:58;21.80;81.80
8676;DHT22;4375;52.486;13.424;2023-05-10T11:36:28;21.60;83.40
8676;DHT22;4375;52.486;13.424;2023-05-10T11:38:56;21.80;83.80
8676;DHT22;4375;52.486;13.424;2023-05-10T11:41:23;21.90;83.80
8676;DHT22;4375;52.486;13.424;2023-05-10T11:43:53;22.00;83.80
8676;DHT22;4375;52.486;13.424;2023-05-10T11:46:20;21.90;82.50
8676;DHT22;4375;52.486;13.424;2023-05-10T11:49:06;21.90;81.50
8676;DHT22;4375;52.486;13.424;2023-05-10T11:51:34;22.00;81.10
8676;DHT22;4375;52.486;13.424;2023-05-10T11:54:01;21.90;80.40
8676;DHT22;4375;52.486;13.424;2023-05-10T11:56:32;21.90;81.60
8676;DHT22;4375;52.486;13.424;2023-05-10T11:58:58;22.10;81.70
8676;DHT22;4375;52.486;13.424;2023-05-10T12:01:26;22.10;81.70
8676;DHT22;4375;52.486;13.424;2023-05-10T12:03:53;22.10;81.40
8676;DHT22;4375;52.486;13.424;2023-05-10T12:06:20;21.90;79.20
8676;DHT22;4375;52.486;13.424;2023-05-10T12:08:47;21.90;78.70
8676;DHT22;4375;52.486;13.424;2023-05-10T12:11:13;21.70;79.90
8676;DHT22;4375;52.486;13.424;2023-05-10T12:13:43;21.60;81.10
8676;DHT22;4375;52.486;13.424;2023-05-10T12:16:22;21.60;82.10
8676;DHT22;4375;52.486;13.424;2023-05-10T12:18:51;21.60;81.40
8676;DHT22;4375;52.486;13.424;2023-05-10T12:21:19;21.80;81.40
8676;DHT22;4375;52.486;13.424;2023-05-10T12:23:46;21.70;79.70
8676;DHT22;4375;52.486;13.424;2023-05-10T12:26:12;21.80;80.20
8676;DHT22;4375;52.486;13.424;2023-05-10T12:28:38;21.90;81.40
8676;DHT22;4375;52.486;13.424;2023-05-10T12:31:07;21.90;82.10
8676;DHT22;4375;52.486;13.424;2023-05-10T12:33:40;21.90;82.70
8676;DHT22;4375;52.486;13.424;2023-05-10T12:36:10;21.90;83.00
8676;DHT22;4375;52.486;13.424;2023-05-10T12:38:39;21.80;81.00
8676;DHT22;4375;52.486;13.424;2023-05-10T12:41:16;21.80;81.40
8676;DHT22;4375;52.486;13.424;2023-05-10T12:43:42;21.80;82.70
8676;DHT22;4375;52.486;13.424;2023-05-10T12:46:16;21.80;83.50
8676;DHT22;4375;52.486;13.424;2023-05-10T12:48:43;21.80;83.90
8676;DHT22;4375;52.486;13.424;2023-05-10T12:51:09;21.70;81.90
8676;DHT22;4375;52.486;13.424;2023-05-10T12:53:37;21.70;80.70
8676;DHT22;4375;52.486;13.424;2023-05-10T12:56:03;21.60;78.80
8676;DHT22;4375;52.486;13.424;2023-05-10T12:58:28;21.60;80.30
8676;DHT22;4375;52.486;13.424;2023-05-10T13:00:54;21.80;81.60
8676;DHT22;4375;52.486;13.424;2023-05-10T13:03:21;21.90;81.00
8676;DHT22;4375;52.486;13.424;2023-05-10T13:05:47;21.70;81.50
8676;DHT22;4375;52.486;13.424;2023-05-10T13:08:13;21.80;81.80
8676;DHT22;4375;52.486;13.424;2023-05-10T13:10:39;21.80;81.10
8676;DHT22;4375;52.486;13.424;2023-05-10T13:13:04;21.90;82.30
8676;DHT22;4375;52.486;13.424;2023-05-10T13:15:30;22.00;81.00
8676;DHT22;4375;52.486;13.424;2023-05-10T13:17:56;22.00;79.70
8676;DHT22;4375;52.486;13.424;2023-05-10T13:20:23;22.00;80.80
8676;DHT22;4375;52.486;13.424;2023-05-10T13:22:48;21.90;80.90
8676;DHT22;4375;52.486;13.424;2023-05-10T13:25:14;21.90;81.10
8676;DHT22;4375;52.486;13.424;2023-05-10T13:27:40;21.80;81.10
8676;DHT22;4375;52.486;13.424;2023-05-10T13:30:07;21.70;80.30
8676;DHT22;4375;52.486;13.424;2023-05-10T13:32:33;21.60;80.60
8676;DHT22;4375;52.486;13.424;2023-05-10T13:34:59;21.70;81.00
8676;DHT22;4375;52.486;13.424;2023-05-10T13:37:24;21.90;80.60
8676;DHT22;4375;52.486;13.424;2023-05-10T13:39:50;22.00;80.20
8676;DHT22;4375;52.486;13.424;2023-05-10T13:42:16;22.10;79.80
8676;DHT22;4375;52.486;13.424;2023-05-10T13:44:43;22.20;79.90
8676;DHT22;4375;52.486;13.424;2023-05-10T13:47:09;22.20;78.70
8676;DHT22;4375;52.486;13.424;2023-05-10T13:49:35;21.80;78.80
8676;DHT22;4375;52.486;13.424;2023-05-10T13:52:01;21.90;78.60
8676;DHT22;4375;52.486;13.424;2023-05-10T13:54:35;21.90;77.90
8676;DHT22;4375;52.486;13.424;2023-05-10T13:57:01;21.90;77.70
8676;DHT22;4375;52.486;13.424;2023-05-10T13:59:27;22.10;75.90
8676;DHT22;4375;52.486;13.424;2023-05-10T14:01:52;22.10;75.30
8676;DHT22;4375;52.486;13.424;2023-05-10T14:04:18;22.20;75.50
8676;DHT22;4375;52.486;13.424;2023-05-10T14:06:44;22.20;76.20
8676;DHT22;4375;52.486;13.424;2023-05-10T14:09:09;22.20;76.90
8676;DHT22;4375;52.486;13.424;2023-05-10T14:11:35;22.20;77.40
8676;DHT22;4375;52.486;13.424;2023-05-10T14:14:01;22.30;76.40
8676;DHT22;4375;52.486;13.424;2023-05-10T14:16:26;22.20;76.00
8676;DHT22;4375;52.486;13.424;2023-05-10T14:18:52;22.20;76.10
8676;DHT22;4375;52.486;13.424;2023-05-10T14:21:18;22.30;74.00
8676;DHT22;4375;52.486;13.424;2023-05-10T14:23:44;22.30;71.90
8676;DHT22;4375;52.486;13.424;2023-05-10T14:26:09;22.30;71.40
8676;DHT22;4375;52.486;13.424;2023-05-10T14:28:35;22.40;71.70
8676;DHT22;4375;52.486;13.424;2023-05-10T14:31:01;22.40;71.70
8676;DHT22;4375;52.486;13.424;2023-05-10T14:33:26;22.30;71.50
8676;DHT22;4375;52.486;13.424;2023-05-10T14:35:53;22.20;71.60
8676;DHT22;4375;52.486;13.424;2023-05-10T14:38:19;22.10;72.30
8676;DHT22;4375;52.486;13.424;2023-05-10T14:40:45;22.30;73.70
8676;DHT22;4375;52.486;13.424;2023-05-10T14:43:10;22.40;75.00
8676;DHT22;4375;52.486;13.424;2023-05-10T14:45:36;22.40;75.30
8676;DHT22;4375;52.486;13.424;2023-05-10T14:48:01;22.40;74.80
8676;DHT22;4375;52.486;13.424;2023-05-10T14:50:30;22.20;74.80
8676;DHT22;4375;52.486;13.424;2023-05-10T14:52:57;22.30;73.00
8676;DHT22;4375;52.486;13.424;2023-05-10T14:55:22;22.40;72.90
8676;DHT22;4375;52.486;13.424;2023-05-10T14:57:48;22.40;73.20
8676;DHT22;4375;52.486;13.424;2023-05-10T15:00:15;22.30;73.20
8676;DHT22;4375;52.486;13.424;2023-05-10T15:02:41;22.20;73.70
8676;DHT22;4375;52.486;13.424;2023-05-10T15:05:07;22.20;74.60
8676;DHT22;4375;52.486;13.424;2023-05-10T15:07:33;22.20;74.90
8676;DHT22;4375;52.486;13.424;2023-05-10T15:09:58;22.20;75.50
8676;DHT22;4375;52.486;13.424;2023-05-10T15:12:24;22.10;75.80
8676;DHT22;4375;52.486;13.424;2023-05-10T15:14:50;22.10;76.10
8676;DHT22;4375;52.486;13.424;2023-05-10T15:17:15;22.20;75.60
8676;DHT22;4375;52.486;13.424;2023-05-10T15:19:42;22.10;75.30
8676;DHT22;4375;52.486;13.424;2023-05-10T15:22:08;21.90;75.40
8676;DHT22;4375;52.486;13.424;2023-05-10T15:24:33;21.90;75.50
8676;DHT22;4375;52.486;13.424;2023-05-10T15:26:59;21.80;75.80
8676;DHT22;4375;52.486;13.424;2023-05-10T15:29:26;21.80;74.80
8676;DHT22;4375;52.486;13.424;2023-05-10T15:31:51;21.70;73.90
8676;DHT22;4375;52.486;13.424;2023-05-10T15:34:18;21.60;74.30
8676;DHT22;4375;52.486;13.424;2023-05-10T15:36:44;21.60;76.10
8676;DHT22;4375;52.486;13.424;2023-05-10T15:39:10;21.60;77.10
8676;DHT22;4375;52.486;13.424;2023-05-10T15:41:36;21.60;77.10
8676;DHT22;4375;52.486;13.424;2023-05-10T15:44:02;21.60;77.30
8676;DHT22;4375;52.486;13.424;2023-05-10T15:46:28;21.60;78.60
8676;DHT22;4375;52.486;13.424;2023-05-10T15:48:54;21.50;78.00
8676;DHT22;4375;52.486;13.424;2023-05-10T15:51:19;21.50;78.40
8676;DHT22;4375;52.486;13.424;2023-05-10T15:53:45;21.40;78.70
8676;DHT22;4375;52.486;13.424;2023-05-10T15:56:11;21.40;78.80
8676;DHT22;4375;52.486;13.424;2023-05-10T15:58:37;21.40;79.20
8676;DHT22;4375;52.486;13.424;2023-05-10T16:01:03;21.40;79.00
8676;DHT22;4375;52.486;13.424;2023-05-10T16:03:33;21.50;79.60
8676;DHT22;4375;52.486;13.424;2023-05-10T16:05:59;21.50;79.60
8676;DHT22;4375;52.486;13.424;2023-05-10T16:08:24;21.40;79.80
8676;DHT22;4375;52.486;13.424;2023-05-10T16:10:51;21.40;80.40
8676;DHT22;4375;52.486;13.424;2023-05-10T16:13:17;21.50;80.30
8676;DHT22;4375;52.486;13.424;2023-05-10T16:15:42;21.40;80.90